createdAt,value
2019-03-24T00:04:37.923Z,31.3
2019-03-24T00:09:25.240Z,31.3
2019-03-24T00:14:12.874Z,31.3
2019-03-24T00:19:00.255Z,31.2
2019-03-24T00:26:24.735Z,31.2
2019-03-24T00:31:11.983Z,31.2
2019-03-24T00:35:59.035Z,31.1
2019-03-24T00:40:46.123Z,31.1
2019-03-24T00:45:37.025Z,31
2019-03-24T00:53:18.210Z,31
2019-03-24T00:58:05.458Z,30.9
2019-03-24T01:02:52.385Z,30.9
2019-03-24T01:07:39.388Z,30.9
2019-03-24T01:12:26.293Z,30.8
2019-03-24T01:19:18.945Z,30.7
2019-03-24T01:24:06.265Z,30.7
2019-03-24T01:28:53.579Z,30.6
2019-03-24T01:33:40.670Z,30.6
2019-03-24T01:38:29.049Z,30.5
2019-03-24T01:45:20.895Z,30.4
2019-03-24T01:50:09.129Z,30.4
2019-03-24T01:54:56.275Z,30.3
2019-03-24T01:59:44.212Z,30.2
2019-03-24T02:04:32.396Z,30.1
2019-03-24T02:13:14.039Z,30
2019-03-24T02:18:01.067Z,29.9
2019-03-24T02:22:49.035Z,29.9
2019-03-24T02:27:36.411Z,29.8
2019-03-24T02:32:23.145Z,29.7
2019-03-24T02:37:10.956Z,29.7
2019-03-24T02:43:01.510Z,29.6
2019-03-24T02:47:48.618Z,29.5
2019-03-24T02:52:37.481Z,29.5
2019-03-24T02:57:24.981Z,29.4
2019-03-24T03:02:12.045Z,29.4
2019-03-24T03:06:59.541Z,29.3
2019-03-24T03:12:33.967Z,29.3
2019-03-24T03:17:21.393Z,29.2
2019-03-24T03:22:08.674Z,29.2
2019-03-24T03:26:56.527Z,29.1
2019-03-24T03:31:43.741Z,29
2019-03-24T03:36:31.049Z,29
2019-03-24T03:42:05.294Z,28.9
2019-03-24T03:46:53.377Z,28.8
2019-03-24T03:51:40.551Z,28.8
2019-03-24T03:56:27.999Z,28.7
2019-03-24T04:01:16.443Z,28.7
2019-03-24T04:06:03.809Z,28.6
2019-03-24T04:13:27.279Z,28.5
2019-03-24T04:18:14.313Z,28.4
2019-03-24T04:23:02.364Z,28.3
2019-03-24T04:27:50.710Z,28.3
2019-03-24T04:32:37.910Z,28.2
2019-03-24T04:37:24.930Z,28.1
2019-03-24T04:43:15.017Z,28.1
2019-03-24T04:48:02.373Z,28
2019-03-24T04:52:49.390Z,27.9
2019-03-24T04:57:36.737Z,27.8
2019-03-24T05:02:23.847Z,27.8
2019-03-24T05:07:11.197Z,27.7
2019-03-24T05:13:00.401Z,27.6
2019-03-24T05:17:48.247Z,27.5
2019-03-24T05:22:35.177Z,27.4
2019-03-24T05:27:23.055Z,27.4
2019-03-24T05:32:10.701Z,27.3
2019-03-24T05:41:12.573Z,27.2
2019-03-24T05:45:59.801Z,27.1
2019-03-24T05:50:46.758Z,27
2019-03-24T05:55:34.759Z,27
2019-03-24T06:00:21.703Z,26.9
2019-03-24T06:08:01.655Z,26.8
2019-03-24T06:12:49.112Z,26.7
2019-03-24T06:17:35.921Z,26.6
2019-03-24T06:22:23.233Z,26.6
2019-03-24T06:27:11.331Z,26.5
2019-03-24T06:34:36.095Z,26.4
2019-03-24T06:39:23.228Z,26.3
2019-03-24T06:44:10.030Z,26.2
2019-03-24T06:48:57.192Z,26.2
2019-03-24T06:53:45.182Z,26
2019-03-24T07:01:26.376Z,25.9
2019-03-24T07:06:15.070Z,25.8
2019-03-24T07:11:09.517Z,25.7
2019-03-24T07:16:00.705Z,25.6
2019-03-24T07:20:48.952Z,25.6
2019-03-24T07:25:35.802Z,25.4
2019-03-24T07:30:38.268Z,25.3
2019-03-24T07:35:25.273Z,25.2
2019-03-24T07:40:12.744Z,25.1
2019-03-24T07:44:59.924Z,25
2019-03-24T07:49:46.738Z,24.9
2019-03-24T07:54:34.541Z,24.7
2019-03-24T07:59:22.519Z,24.6
2019-03-24T08:04:10.037Z,24.5
2019-03-24T08:08:57.634Z,24.4
2019-03-24T08:13:53.369Z,24.3
2019-03-24T08:18:41.686Z,24.1
2019-03-24T08:23:29.486Z,24
2019-03-24T08:28:16.893Z,23.9
2019-03-24T08:33:03.801Z,23.8
2019-03-24T08:37:52.022Z,23.6
2019-03-24T08:42:39.556Z,23.5
2019-03-24T08:47:26.628Z,23.4
2019-03-24T08:52:15.609Z,23.3
2019-03-24T08:57:02.972Z,23.1
2019-03-24T09:01:50.824Z,23
2019-03-24T09:06:39.812Z,22.9
2019-03-24T09:11:31.452Z,22.7
2019-03-24T09:16:19.545Z,22.6
2019-03-24T09:21:07.058Z,22.4
2019-03-24T09:25:56.074Z,22.3
2019-03-24T09:30:43.287Z,22.2
2019-03-24T09:35:31.187Z,22
2019-03-24T09:40:18.816Z,21.9
2019-03-24T09:45:06.558Z,21.8
2019-03-24T09:49:53.700Z,21.6
2019-03-24T09:54:41.028Z,21.5
2019-03-24T09:59:28.474Z,21.4
2019-03-24T10:04:15.659Z,21.3
2019-03-24T10:09:02.788Z,21.1
2019-03-24T10:13:49.765Z,21
2019-03-24T10:18:36.828Z,20.9
2019-03-24T10:23:23.696Z,20.8
2019-03-24T10:28:11.391Z,20.7
2019-03-24T10:32:58.206Z,20.5
2019-03-24T10:37:45.583Z,20.4
2019-03-24T10:42:33.186Z,20.3
2019-03-24T10:47:20.576Z,20.2
2019-03-24T10:52:08.168Z,20
2019-03-24T10:56:55.744Z,19.9
2019-03-24T11:01:43.570Z,19.8
2019-03-24T11:06:31.546Z,19.7
2019-03-24T11:11:18.567Z,19.5
2019-03-24T11:16:05.719Z,19.4
2019-03-24T11:20:53.588Z,19.3
2019-03-24T11:25:40.475Z,19.2
2019-03-24T11:30:28.202Z,19.1
2019-03-24T11:35:16.001Z,18.9
2019-03-24T11:40:03.352Z,18.8
2019-03-24T11:44:50.596Z,18.7
2019-03-24T11:49:46.047Z,18.6
2019-03-24T11:54:35.217Z,18.5
2019-03-24T11:59:23.096Z,18.3
2019-03-24T12:04:10.067Z,18.2
2019-03-24T12:08:57.412Z,18.1
2019-03-24T12:13:44.215Z,18
2019-03-24T12:18:31.435Z,17.9
2019-03-24T12:23:21.009Z,17.8
2019-03-24T12:28:08.887Z,17.7
2019-03-24T12:32:55.925Z,17.6
2019-03-24T12:37:42.892Z,17.5
2019-03-24T12:42:30.650Z,17.4
2019-03-24T12:47:20.345Z,17.3
2019-03-24T12:52:07.750Z,17.2
2019-03-24T12:56:56.758Z,17.1
2019-03-24T13:01:44.396Z,17
2019-03-24T13:06:31.254Z,16.9
2019-03-24T13:11:18.260Z,16.8
2019-03-24T13:16:05.287Z,16.7
2019-03-24T13:20:52.193Z,16.6
2019-03-24T13:25:39.638Z,16.6
2019-03-24T13:30:27.081Z,16.5
2019-03-24T13:35:14.033Z,16.4
2019-03-24T13:40:02.093Z,16.3
2019-03-24T13:44:51.110Z,16.2
2019-03-24T13:49:38.564Z,16.2
2019-03-24T13:54:26.454Z,16.1
2019-03-24T13:59:15.694Z,16.1
2019-03-24T14:04:02.960Z,16
2019-03-24T14:08:49.852Z,16
2019-03-24T14:13:38.350Z,15.9
2019-03-24T14:18:26.347Z,15.9
2019-03-24T14:23:13.771Z,15.8
2019-03-24T14:28:00.642Z,15.8
2019-03-24T14:32:48.931Z,15.7
2019-03-24T14:37:36.277Z,15.7
2019-03-24T14:42:23.228Z,15.6
2019-03-24T14:47:12.252Z,15.6
2019-03-24T14:52:01.334Z,15.5
2019-03-24T14:56:48.360Z,15.5
2019-03-24T15:01:35.544Z,15.5
2019-03-24T15:06:22.554Z,15.4
2019-03-24T15:11:10.224Z,15.4
2019-03-24T15:15:57.414Z,15.4
2019-03-24T15:20:44.826Z,15.4
2019-03-24T15:25:31.821Z,15.3
2019-03-24T15:30:19.801Z,15.3
2019-03-24T15:35:06.975Z,15.3
2019-03-24T15:39:54.692Z,15.2
2019-03-24T15:44:41.800Z,15.2
2019-03-24T15:49:28.688Z,15.2
2019-03-24T15:54:15.662Z,15.2
2019-03-24T15:59:04.714Z,15.1
2019-03-24T16:03:51.934Z,15.1
2019-03-24T16:08:40.183Z,15
2019-03-24T16:13:27.403Z,14.9
2019-03-24T16:18:14.454Z,14.7
2019-03-24T16:23:03.463Z,14.6
2019-03-24T16:27:50.831Z,14.4
2019-03-24T16:32:37.639Z,14.3
2019-03-24T16:37:24.715Z,14.2
2019-03-24T16:42:12.070Z,14.1
2019-03-24T16:46:59.402Z,13.9
2019-03-24T16:51:46.795Z,13.7
2019-03-24T16:56:35.688Z,13.6
2019-03-24T17:01:23.376Z,13.4
2019-03-24T17:06:10.418Z,13.3
2019-03-24T17:10:57.250Z,13.1
2019-03-24T17:15:44.149Z,12.9
2019-03-24T17:20:32.296Z,12.8
2019-03-24T17:25:20.262Z,12.6
2019-03-24T17:30:09.953Z,12.5
2019-03-24T17:34:57.054Z,12.3
2019-03-24T17:39:44.264Z,12.1
2019-03-24T17:44:31.232Z,11.9
2019-03-24T17:49:18.635Z,11.8
2019-03-24T17:54:06.182Z,11.6
2019-03-24T17:58:53.580Z,11.6
2019-03-24T18:03:41.302Z,11.5
2019-03-24T18:08:28.826Z,11.4
2019-03-24T18:13:16.238Z,11.4
2019-03-24T18:18:04.677Z,11.3
2019-03-24T18:22:51.947Z,11.2
2019-03-24T18:27:38.864Z,11.2
2019-03-24T18:32:26.947Z,11.1
2019-03-24T18:37:14.494Z,11
2019-03-24T18:42:01.390Z,10.9
2019-03-24T18:46:48.318Z,10.9
2019-03-24T18:51:37.586Z,10.9
2019-03-24T18:56:26.913Z,10.8
2019-03-24T19:01:14.237Z,10.8
2019-03-24T19:06:01.147Z,10.8
2019-03-24T19:10:49.010Z,10.7
2019-03-24T19:15:37.478Z,10.7
2019-03-24T19:20:25.013Z,10.6
2019-03-24T19:25:13.506Z,10.5
2019-03-24T19:30:00.693Z,10.4
2019-03-24T19:34:47.570Z,10.4
2019-03-24T19:39:35.106Z,10.3
2019-03-24T19:44:22.590Z,10.2
2019-03-24T19:49:09.910Z,10.2
2019-03-24T19:53:57.158Z,10.1
2019-03-24T19:58:44.718Z,10.1
2019-03-24T20:03:31.566Z,10
2019-03-24T20:08:19.359Z,10
2019-03-24T20:13:08.025Z,9.9
2019-03-24T20:17:54.936Z,9.8
2019-03-24T20:22:41.725Z,9.8
2019-03-24T20:27:28.827Z,9.8
2019-03-24T20:32:15.814Z,9.7
2019-03-24T20:37:05.394Z,9.7
2019-03-24T20:41:52.723Z,9.7
2019-03-24T20:46:40.148Z,9.7
2019-03-24T20:51:27.861Z,9.6
2019-03-24T20:56:14.963Z,9.7
2019-03-24T21:01:01.829Z,9.7
2019-03-24T21:05:48.814Z,9.7
2019-03-24T21:10:36.917Z,9.7
2019-03-24T21:15:24.015Z,9.7
2019-03-24T21:20:11.382Z,9.7
2019-03-24T21:24:59.045Z,9.7
2019-03-24T21:29:46.326Z,9.7
2019-03-24T21:34:33.327Z,9.7
2019-03-24T21:39:20.791Z,9.7
2019-03-24T21:44:08.037Z,9.7
2019-03-24T21:48:57.829Z,9.7
2019-03-24T21:53:46.638Z,9.7
2019-03-24T21:58:33.896Z,9.7
2019-03-24T22:03:20.904Z,9.7
2019-03-24T22:08:10.735Z,9.7
2019-03-24T22:13:00.207Z,9.7
2019-03-24T22:17:47.445Z,9.8
2019-03-24T22:22:35.197Z,9.8
2019-03-24T22:27:24.182Z,9.8
2019-03-24T22:32:12.322Z,9.9
2019-03-24T22:36:59.441Z,9.9
2019-03-24T22:44:08.482Z,9.9
2019-03-24T22:48:55.404Z,9.9
2019-03-24T22:53:42.396Z,9.9
2019-03-24T22:58:29.140Z,10
2019-03-24T23:03:18.426Z,10
2019-03-24T23:08:06.834Z,10.1
2019-03-24T23:12:54.105Z,10.1
2019-03-24T23:17:41.489Z,10.1
2019-03-24T23:22:28.926Z,10.2
2019-03-24T23:27:17.128Z,10.2
2019-03-24T23:32:52.214Z,10.3
2019-03-24T23:37:39.615Z,10.3
2019-03-24T23:42:26.778Z,10.3
2019-03-24T23:47:14.534Z,10.4
2019-03-24T23:52:01.869Z,10.4
2019-03-24T23:56:49.664Z,10.4
